sensor_id;sensor_type;location;lat;lon;timestamp;P1;durP1;ratioP1;P2;durP2;ratioP2
15689;SDS011;7945;48.816;11.506;2023-05-17T00:02:15;4.43;;;2.90;;
15689;SDS011;7945;48.816;11.506;2023-05-17T00:04:42;4.22;;;2.92;;
15689;SDS011;7945;48.816;11.506;2023-05-17T00:07:11;4.38;;;3.08;;
15689;SDS011;7945;48.816;11.506;2023-05-17T00:09:38;4.60;;;2.95;;
15689;SDS011;7945;48.816;11.506;2023-05-17T00:12:05;3.30;;;2.70;;
15689;SDS011;7945;48.816;11.506;2023-05-17T00:14:32;5.25;;;3.08;;
15689;SDS011;7945;48.816;11.506;2023-05-17T00:16:58;7.20;;;3.10;;
15689;SDS011;7945;48.816;11.506;2023-05-17T00:19:25;3.95;;;2.85;;
15689;SDS011;7945;48.816;11.506;2023-05-17T00:21:52;4.35;;;2.78;;
15689;SDS011;7945;48.816;11.506;2023-05-17T00:24:20;5.28;;;2.65;;
15689;SDS011;7945;48.816;11.506;2023-05-17T00:26:46;4.43;;;2.60;;
15689;SDS011;7945;48.816;11.506;2023-05-17T00:29:13;5.72;;;2.60;;
15689;SDS011;7945;48.816;11.506;2023-05-17T00:31:40;4.70;;;2.60;;
15689;SDS011;7945;48.816;11.506;2023-05-17T00:34:07;4.82;;;2.60;;
15689;SDS011;7945;48.816;11.506;2023-05-17T00:36:33;4.57;;;2.65;;
15689;SDS011;7945;48.816;11.506;2023-05-17T00:39:00;11.18;;;2.92;;
15689;SDS011;7945;48.816;11.506;2023-05-17T00:41:29;5.75;;;2.88;;
15689;SDS011;7945;48.816;11.506;2023-05-17T00:43:55;5.13;;;2.58;;
15689;SDS011;7945;48.816;11.506;2023-05-17T00:46:22;3.53;;;2.50;;
15689;SDS011;7945;48.816;11.506;2023-05-17T00:48:49;2.83;;;2.38;;
15689;SDS011;7945;48.816;11.506;2023-05-17T00:51:15;4.00;;;2.55;;
15689;SDS011;7945;48.816;11.506;2023-05-17T00:53:45;4.15;;;2.88;;
15689;SDS011;7945;48.816;11.506;2023-05-17T00:56:13;4.38;;;2.42;;
15689;SDS011;7945;48.816;11.506;2023-05-17T00:58:41;4.70;;;2.53;;
15689;SDS011;7945;48.816;11.506;2023-05-17T01:01:08;4.25;;;2.65;;
15689;SDS011;7945;48.816;11.506;2023-05-17T01:03:34;2.85;;;1.95;;
15689;SDS011;7945;48.816;11.506;2023-05-17T01:06:01;3.88;;;2.35;;
15689;SDS011;7945;48.816;11.506;2023-05-17T01:08:29;3.50;;;1.95;;
15689;SDS011;7945;48.816;11.506;2023-05-17T01:10:59;5.30;;;2.40;;
15689;SDS011;7945;48.816;11.506;2023-05-17T01:13:32;3.78;;;2.47;;
15689;SDS011;7945;48.816;11.506;2023-05-17T01:16:08;2.85;;;2.38;;
15689;SDS011;7945;48.816;11.506;2023-05-17T01:18:43;4.93;;;2.38;;
15689;SDS011;7945;48.816;11.506;2023-05-17T01:21:16;4.38;;;2.13;;
15689;SDS011;7945;48.816;11.506;2023-05-17T01:24:02;3.60;;;2.15;;
15689;SDS011;7945;48.816;11.506;2023-05-17T01:26:43;5.32;;;2.15;;
15689;SDS011;7945;48.816;11.506;2023-05-17T01:29:13;2.42;;;1.85;;
15689;SDS011;7945;48.816;11.506;2023-05-17T01:31:42;3.53;;;2.05;;
15689;SDS011;7945;48.816;11.506;2023-05-17T01:34:10;3.25;;;2.10;;
15689;SDS011;7945;48.816;11.506;2023-05-17T01:36:37;6.40;;;2.30;;
15689;SDS011;7945;48.816;11.506;2023-05-17T01:39:03;3.97;;;2.10;;
15689;SDS011;7945;48.816;11.506;2023-05-17T01:41:32;2.67;;;2.15;;
15689;SDS011;7945;48.816;11.506;2023-05-17T01:44:05;4.10;;;1.98;;
15689;SDS011;7945;48.816;11.506;2023-05-17T01:46:38;2.97;;;1.92;;
15689;SDS011;7945;48.816;11.506;2023-05-17T01:49:08;6.03;;;2.03;;
15689;SDS011;7945;48.816;11.506;2023-05-17T01:51:43;2.35;;;1.75;;
15689;SDS011;7945;48.816;11.506;2023-05-17T01:54:12;3.92;;;2.10;;
15689;SDS011;7945;48.816;11.506;2023-05-17T01:56:43;5.05;;;1.95;;
15689;SDS011;7945;48.816;11.506;2023-05-17T01:59:16;2.92;;;2.00;;
15689;SDS011;7945;48.816;11.506;2023-05-17T02:01:49;3.90;;;1.63;;
15689;SDS011;7945;48.816;11.506;2023-05-17T02:04:18;3.47;;;1.95;;
15689;SDS011;7945;48.816;11.506;2023-05-17T02:06:45;5.38;;;1.80;;
15689;SDS011;7945;48.816;11.506;2023-05-17T02:09:12;3.30;;;1.90;;
15689;SDS011;7945;48.816;11.506;2023-05-17T02:11:39;3.15;;;1.75;;
15689;SDS011;7945;48.816;11.506;2023-05-17T02:14:05;5.28;;;2.33;;
15689;SDS011;7945;48.816;11.506;2023-05-17T02:16:33;3.53;;;1.77;;
15689;SDS011;7945;48.816;11.506;2023-05-17T02:19:00;3.97;;;2.00;;
15689;SDS011;7945;48.816;11.506;2023-05-17T02:21:27;2.80;;;1.80;;
15689;SDS011;7945;48.816;11.506;2023-05-17T02:23:54;4.32;;;1.92;;
15689;SDS011;7945;48.816;11.506;2023-05-17T02:26:21;1.70;;;1.60;;
15689;SDS011;7945;48.816;11.506;2023-05-17T02:28:48;2.53;;;1.73;;
15689;SDS011;7945;48.816;11.506;2023-05-17T02:31:14;3.40;;;1.77;;
15689;SDS011;7945;48.816;11.506;2023-05-17T02:33:42;2.53;;;1.73;;
15689;SDS011;7945;48.816;11.506;2023-05-17T02:36:09;4.03;;;1.98;;
15689;SDS011;7945;48.816;11.506;2023-05-17T02:38:36;3.33;;;1.75;;
15689;SDS011;7945;48.816;11.506;2023-05-17T02:41:03;2.20;;;2.00;;
15689;SDS011;7945;48.816;11.506;2023-05-17T02:43:30;2.13;;;1.92;;
15689;SDS011;7945;48.816;11.506;2023-05-17T02:45:56;6.38;;;1.98;;
15689;SDS011;7945;48.816;11.506;2023-05-17T02:48:23;2.30;;;1.80;;
15689;SDS011;7945;48.816;11.506;2023-05-17T02:50:51;2.17;;;2.00;;
15689;SDS011;7945;48.816;11.506;2023-05-17T02:53:18;2.10;;;1.90;;
15689;SDS011;7945;48.816;11.506;2023-05-17T02:55:44;2.13;;;1.90;;
15689;SDS011;7945;48.816;11.506;2023-05-17T02:58:11;2.10;;;1.80;;
15689;SDS011;7945;48.816;11.506;2023-05-17T03:00:38;4.43;;;1.77;;
15689;SDS011;7945;48.816;11.506;2023-05-17T03:03:05;4.00;;;1.77;;
15689;SDS011;7945;48.816;11.506;2023-05-17T03:05:32;3.65;;;1.80;;
15689;SDS011;7945;48.816;11.506;2023-05-17T03:08:00;2.25;;;1.85;;
15689;SDS011;7945;48.816;11.506;2023-05-17T03:10:27;2.42;;;1.70;;
15689;SDS011;7945;48.816;11.506;2023-05-17T03:12:53;3.45;;;1.60;;
15689;SDS011;7945;48.816;11.506;2023-05-17T03:15:20;3.20;;;1.83;;
15689;SDS011;7945;48.816;11.506;2023-05-17T03:17:47;2.20;;;1.55;;
15689;SDS011;7945;48.816;11.506;2023-05-17T03:20:14;3.50;;;1.60;;
15689;SDS011;7945;48.816;11.506;2023-05-17T03:22:40;2.10;;;1.60;;
15689;SDS011;7945;48.816;11.506;2023-05-17T03:25:09;4.50;;;1.80;;
15689;SDS011;7945;48.816;11.506;2023-05-17T03:27:35;4.13;;;2.05;;
15689;SDS011;7945;48.816;11.506;2023-05-17T03:30:02;3.83;;;1.80;;
15689;SDS011;7945;48.816;11.506;2023-05-17T03:32:29;2.70;;;1.70;;
15689;SDS011;7945;48.816;11.506;2023-05-17T03:34:56;2.58;;;1.73;;
15689;SDS011;7945;48.816;11.506;2023-05-17T03:37:23;6.25;;;1.80;;
15689;SDS011;7945;48.816;11.506;2023-05-17T03:39:50;3.90;;;1.77;;
15689;SDS011;7945;48.816;11.506;2023-05-17T03:42:18;3.53;;;2.33;;
15689;SDS011;7945;48.816;11.506;2023-05-17T03:44:45;3.25;;;2.10;;
15689;SDS011;7945;48.816;11.506;2023-05-17T03:47:12;2.35;;;2.00;;
15689;SDS011;7945;48.816;11.506;2023-05-17T03:49:39;3.20;;;2.22;;
15689;SDS011;7945;48.816;11.506;2023-05-17T03:52:05;5.28;;;2.20;;
15689;SDS011;7945;48.816;11.506;2023-05-17T03:54:32;3.47;;;1.80;;
15689;SDS011;7945;48.816;11.506;2023-05-17T03:56:59;2.85;;;1.73;;
15689;SDS011;7945;48.816;11.506;2023-05-17T03:59:27;3.67;;;2.35;;
15689;SDS011;7945;48.816;11.506;2023-05-17T04:01:54;3.60;;;1.77;;
15689;SDS011;7945;48.816;11.506;2023-05-17T04:04:20;2.90;;;1.63;;
15689;SDS011;7945;48.816;11.506;2023-05-17T04:06:47;2.42;;;1.90;;
15689;SDS011;7945;48.816;11.506;2023-05-17T04:09:14;4.95;;;1.92;;
15689;SDS011;7945;48.816;11.506;2023-05-17T04:11:40;2.92;;;1.83;;
15689;SDS011;7945;48.816;11.506;2023-05-17T04:14:07;2.92;;;1.90;;
15689;SDS011;7945;48.816;11.506;2023-05-17T04:16:35;2.58;;;2.20;;
15689;SDS011;7945;48.816;11.506;2023-05-17T04:19:02;2.65;;;1.95;;
15689;SDS011;7945;48.816;11.506;2023-05-17T04:21:29;3.13;;;1.65;;
15689;SDS011;7945;48.816;11.506;2023-05-17T04:23:56;7.90;;;2.83;;
15689;SDS011;7945;48.816;11.506;2023-05-17T04:26:23;1.92;;;1.70;;
15689;SDS011;7945;48.816;11.506;2023-05-17T04:28:51;4.15;;;2.30;;
15689;SDS011;7945;48.816;11.506;2023-05-17T04:31:17;3.47;;;1.67;;
15689;SDS011;7945;48.816;11.506;2023-05-17T04:33:46;2.78;;;1.70;;
15689;SDS011;7945;48.816;11.506;2023-05-17T04:36:12;2.53;;;1.60;;
15689;SDS011;7945;48.816;11.506;2023-05-17T04:38:39;3.10;;;1.88;;
15689;SDS011;7945;48.816;11.506;2023-05-17T04:41:06;3.35;;;1.90;;
15689;SDS011;7945;48.816;11.506;2023-05-17T04:43:34;2.65;;;1.80;;
15689;SDS011;7945;48.816;11.506;2023-05-17T04:46:00;2.63;;;1.85;;
15689;SDS011;7945;48.816;11.506;2023-05-17T04:48:29;3.72;;;1.63;;
15689;SDS011;7945;48.816;11.506;2023-05-17T04:51:00;3.28;;;1.80;;
15689;SDS011;7945;48.816;11.506;2023-05-17T04:53:28;1.70;;;1.40;;
15689;SDS011;7945;48.816;11.506;2023-05-17T04:55:54;3.03;;;1.83;;
15689;SDS011;7945;48.816;11.506;2023-05-17T04:58:21;3.45;;;2.20;;
15689;SDS011;7945;48.816;11.506;2023-05-17T05:00:49;2.25;;;1.77;;
15689;SDS011;7945;48.816;11.506;2023-05-17T05:03:16;2.58;;;1.60;;
15689;SDS011;7945;48.816;11.506;2023-05-17T05:05:42;2.33;;;1.70;;
15689;SDS011;7945;48.816;11.506;2023-05-17T05:08:10;2.53;;;1.80;;
15689;SDS011;7945;48.816;11.506;2023-05-17T05:10:37;3.95;;;1.80;;
15689;SDS011;7945;48.816;11.506;2023-05-17T05:13:04;3.55;;;1.67;;
15689;SDS011;7945;48.816;11.506;2023-05-17T05:15:31;4.60;;;1.60;;
15689;SDS011;7945;48.816;11.506;2023-05-17T05:17:58;3.40;;;1.73;;
15689;SDS011;7945;48.816;11.506;2023-05-17T05:20:24;3.95;;;1.83;;
15689;SDS011;7945;48.816;11.506;2023-05-17T05:22:51;4.40;;;1.90;;
15689;SDS011;7945;48.816;11.506;2023-05-17T05:25:19;1.60;;;1.50;;
15689;SDS011;7945;48.816;11.506;2023-05-17T05:27:46;2.92;;;1.85;;
15689;SDS011;7945;48.816;11.506;2023-05-17T05:30:13;4.03;;;1.80;;
15689;SDS011;7945;48.816;11.506;2023-05-17T05:32:45;2.15;;;1.70;;
15689;SDS011;7945;48.816;11.506;2023-05-17T05:35:13;1.75;;;1.48;;
15689;SDS011;7945;48.816;11.506;2023-05-17T05:37:40;4.80;;;1.90;;
15689;SDS011;7945;48.816;11.506;2023-05-17T05:40:07;3.72;;;1.95;;
15689;SDS011;7945;48.816;11.506;2023-05-17T05:42:36;2.55;;;1.40;;
15689;SDS011;7945;48.816;11.506;2023-05-17T05:45:03;3.55;;;1.80;;
15689;SDS011;7945;48.816;11.506;2023-05-17T05:47:31;4.35;;;1.60;;
15689;SDS011;7945;48.816;11.506;2023-05-17T05:49:57;3.10;;;1.70;;
15689;SDS011;7945;48.816;11.506;2023-05-17T05:52:24;3.65;;;2.08;;
15689;SDS011;7945;48.816;11.506;2023-05-17T05:54:51;4.22;;;2.03;;
15689;SDS011;7945;48.816;11.506;2023-05-17T05:57:18;3.85;;;1.90;;
15689;SDS011;7945;48.816;11.506;2023-05-17T05:59:46;2.58;;;1.40;;
15689;SDS011;7945;48.816;11.506;2023-05-17T06:02:12;3.13;;;1.73;;
15689;SDS011;7945;48.816;11.506;2023-05-17T06:04:40;3.30;;;1.77;;
15689;SDS011;7945;48.816;11.506;2023-05-17T06:07:07;4.50;;;2.25;;
15689;SDS011;7945;48.816;11.506;2023-05-17T06:09:34;3.45;;;1.98;;
15689;SDS011;7945;48.816;11.506;2023-05-17T06:15:21;3.63;;;2.03;;
15689;SDS011;7945;48.816;11.506;2023-05-17T06:17:48;3.33;;;1.77;;
15689;SDS011;7945;48.816;11.506;2023-05-17T06:20:14;4.50;;;2.08;;
15689;SDS011;7945;48.816;11.506;2023-05-17T06:22:41;4.43;;;1.80;;
15689;SDS011;7945;48.816;11.506;2023-05-17T06:25:08;3.25;;;2.08;;
15689;SDS011;7945;48.816;11.506;2023-05-17T06:27:35;4.65;;;1.95;;
15689;SDS011;7945;48.816;11.506;2023-05-17T06:30:02;4.22;;;2.08;;
15689;SDS011;7945;48.816;11.506;2023-05-17T06:32:31;6.72;;;1.80;;
15689;SDS011;7945;48.816;11.506;2023-05-17T06:34:58;5.40;;;1.85;;
15689;SDS011;7945;48.816;11.506;2023-05-17T06:37:24;2.45;;;1.85;;
15689;SDS011;7945;48.816;11.506;2023-05-17T06:39:51;3.00;;;2.10;;
15689;SDS011;7945;48.816;11.506;2023-05-17T06:42:18;2.45;;;2.00;;
15689;SDS011;7945;48.816;11.506;2023-05-17T06:44:45;7.05;;;2.10;;
15689;SDS011;7945;48.816;11.506;2023-05-17T06:47:12;4.32;;;2.10;;
15689;SDS011;7945;48.816;11.506;2023-05-17T06:49:40;3.25;;;2.08;;
15689;SDS011;7945;48.816;11.506;2023-05-17T06:52:07;4.05;;;2.33;;
15689;SDS011;7945;48.816;11.506;2023-05-17T06:54:33;3.75;;;2.17;;
15689;SDS011;7945;48.816;11.506;2023-05-17T06:57:00;4.03;;;2.08;;
15689;SDS011;7945;48.816;11.506;2023-05-17T06:59:27;2.97;;;1.95;;
15689;SDS011;7945;48.816;11.506;2023-05-17T07:01:54;3.53;;;2.00;;
15689;SDS011;7945;48.816;11.506;2023-05-17T07:04:21;3.67;;;1.95;;
15689;SDS011;7945;48.816;11.506;2023-05-17T07:06:49;6.47;;;2.47;;
15689;SDS011;7945;48.816;11.506;2023-05-17T07:09:16;2.88;;;2.08;;
15689;SDS011;7945;48.816;11.506;2023-05-17T07:11:43;3.72;;;2.05;;
15689;SDS011;7945;48.816;11.506;2023-05-17T07:14:10;4.60;;;2.28;;
15689;SDS011;7945;48.816;11.506;2023-05-17T07:16:37;4.28;;;2.05;;
15689;SDS011;7945;48.816;11.506;2023-05-17T07:19:03;4.30;;;3.22;;
15689;SDS011;7945;48.816;11.506;2023-05-17T07:21:30;4.03;;;2.47;;
15689;SDS011;7945;48.816;11.506;2023-05-17T07:23:59;4.32;;;2.97;;
15689;SDS011;7945;48.816;11.506;2023-05-17T07:26:25;3.53;;;2.75;;
15689;SDS011;7945;48.816;11.506;2023-05-17T07:28:52;2.50;;;2.15;;
15689;SDS011;7945;48.816;11.506;2023-05-17T07:31:19;4.57;;;2.50;;
15689;SDS011;7945;48.816;11.506;2023-05-17T07:33:46;3.63;;;2.60;;
15689;SDS011;7945;48.816;11.506;2023-05-17T07:36:12;4.40;;;2.28;;
15689;SDS011;7945;48.816;11.506;2023-05-17T07:38:39;5.50;;;2.30;;
15689;SDS011;7945;48.816;11.506;2023-05-17T07:41:07;5.80;;;2.53;;
15689;SDS011;7945;48.816;11.506;2023-05-17T07:43:34;6.32;;;2.78;;
15689;SDS011;7945;48.816;11.506;2023-05-17T07:46:01;3.60;;;2.33;;
15689;SDS011;7945;48.816;11.506;2023-05-17T07:48:28;3.60;;;2.15;;
15689;SDS011;7945;48.816;11.506;2023-05-17T07:50:55;4.78;;;2.45;;
15689;SDS011;7945;48.816;11.506;2023-05-17T07:53:22;3.60;;;2.85;;
15689;SDS011;7945;48.816;11.506;2023-05-17T07:55:49;4.70;;;2.25;;
15689;SDS011;7945;48.816;11.506;2023-05-17T07:58:18;4.55;;;2.40;;
15689;SDS011;7945;48.816;11.506;2023-05-17T08:00:44;4.55;;;2.28;;
15689;SDS011;7945;48.816;11.506;2023-05-17T08:03:11;2.97;;;2.53;;
15689;SDS011;7945;48.816;11.506;2023-05-17T08:05:38;4.25;;;2.72;;
15689;SDS011;7945;48.816;11.506;2023-05-17T08:08:04;5.00;;;2.47;;
15689;SDS011;7945;48.816;11.506;2023-05-17T08:10:31;4.18;;;2.33;;
15689;SDS011;7945;48.816;11.506;2023-05-17T08:12:58;5.50;;;2.95;;
15689;SDS011;7945;48.816;11.506;2023-05-17T08:15:26;4.40;;;2.53;;
15689;SDS011;7945;48.816;11.506;2023-05-17T08:17:54;3.97;;;2.70;;
15689;SDS011;7945;48.816;11.506;2023-05-17T08:20:21;2.70;;;2.50;;
15689;SDS011;7945;48.816;11.506;2023-05-17T08:22:47;4.00;;;2.80;;
15689;SDS011;7945;48.816;11.506;2023-05-17T08:25:14;5.40;;;2.83;;
15689;SDS011;7945;48.816;11.506;2023-05-17T08:27:41;4.75;;;2.42;;
15689;SDS011;7945;48.816;11.506;2023-05-17T08:30:07;4.35;;;2.65;;
15689;SDS011;7945;48.816;11.506;2023-05-17T08:32:37;6.32;;;2.90;;
15689;SDS011;7945;48.816;11.506;2023-05-17T08:35:04;7.43;;;3.00;;
15689;SDS011;7945;48.816;11.506;2023-05-17T08:37:31;4.60;;;2.75;;
15689;SDS011;7945;48.816;11.506;2023-05-17T08:39:57;3.72;;;2.53;;
15689;SDS011;7945;48.816;11.506;2023-05-17T08:42:24;4.93;;;3.17;;
15689;SDS011;7945;48.816;11.506;2023-05-17T08:44:51;5.18;;;3.00;;
15689;SDS011;7945;48.816;11.506;2023-05-17T08:47:19;4.00;;;3.08;;
15689;SDS011;7945;48.816;11.506;2023-05-17T08:49:55;3.50;;;2.88;;
15689;SDS011;7945;48.816;11.506;2023-05-17T08:52:25;5.35;;;2.55;;
15689;SDS011;7945;48.816;11.506;2023-05-17T08:54:54;7.15;;;2.65;;
15689;SDS011;7945;48.816;11.506;2023-05-17T08:57:21;3.53;;;2.53;;
15689;SDS011;7945;48.816;11.506;2023-05-17T08:59:49;4.57;;;2.72;;
15689;SDS011;7945;48.816;11.506;2023-05-17T09:02:17;4.78;;;2.40;;
15689;SDS011;7945;48.816;11.506;2023-05-17T09:04:44;4.65;;;2.55;;
15689;SDS011;7945;48.816;11.506;2023-05-17T09:07:14;4.10;;;2.42;;
15689;SDS011;7945;48.816;11.506;2023-05-17T09:09:41;3.58;;;2.45;;
15689;SDS011;7945;48.816;11.506;2023-05-17T09:12:08;5.63;;;2.63;;
15689;SDS011;7945;48.816;11.506;2023-05-17T09:14:34;5.00;;;2.53;;
15689;SDS011;7945;48.816;11.506;2023-05-17T09:17:01;3.33;;;2.25;;
15689;SDS011;7945;48.816;11.506;2023-05-17T09:19:29;4.03;;;2.22;;
15689;SDS011;7945;48.816;11.506;2023-05-17T09:21:58;3.75;;;2.30;;
15689;SDS011;7945;48.816;11.506;2023-05-17T09:24:27;3.60;;;2.53;;
15689;SDS011;7945;48.816;11.506;2023-05-17T09:26:59;2.85;;;2.28;;
15689;SDS011;7945;48.816;11.506;2023-05-17T09:29:29;4.45;;;2.13;;
15689;SDS011;7945;48.816;11.506;2023-05-17T09:31:58;3.75;;;2.40;;
15689;SDS011;7945;48.816;11.506;2023-05-17T09:34:37;3.80;;;2.35;;
15689;SDS011;7945;48.816;11.506;2023-05-17T09:37:05;3.00;;;2.15;;
15689;SDS011;7945;48.816;11.506;2023-05-17T09:39:34;4.25;;;2.20;;
15689;SDS011;7945;48.816;11.506;2023-05-17T09:42:02;4.38;;;2.55;;
15689;SDS011;7945;48.816;11.506;2023-05-17T09:44:29;3.90;;;2.55;;
15689;SDS011;7945;48.816;11.506;2023-05-17T09:46:56;4.10;;;2.30;;
15689;SDS011;7945;48.816;11.506;2023-05-17T09:49:25;4.60;;;2.53;;
15689;SDS011;7945;48.816;11.506;2023-05-17T09:51:52;4.22;;;2.25;;
15689;SDS011;7945;48.816;11.506;2023-05-17T09:54:21;2.70;;;2.05;;
15689;SDS011;7945;48.816;11.506;2023-05-17T09:56:53;4.18;;;2.75;;
15689;SDS011;7945;48.816;11.506;2023-05-17T09:59:20;2.80;;;2.03;;
15689;SDS011;7945;48.816;11.506;2023-05-17T10:01:49;4.50;;;2.47;;
15689;SDS011;7945;48.816;11.506;2023-05-17T10:04:16;2.90;;;2.13;;
15689;SDS011;7945;48.816;11.506;2023-05-17T10:06:47;3.33;;;2.15;;
15689;SDS011;7945;48.816;11.506;2023-05-17T10:09:16;2.95;;;2.30;;
15689;SDS011;7945;48.816;11.506;2023-05-17T10:11:45;3.95;;;2.58;;
15689;SDS011;7945;48.816;11.506;2023-05-17T10:14:15;3.70;;;2.33;;
15689;SDS011;7945;48.816;11.506;2023-05-17T10:16:46;4.30;;;2.30;;
15689;SDS011;7945;48.816;11.506;2023-05-17T10:19:14;3.40;;;2.28;;
15689;SDS011;7945;48.816;11.506;2023-05-17T10:21:43;3.33;;;2.42;;
15689;SDS011;7945;48.816;11.506;2023-05-17T10:24:12;2.88;;;2.38;;
15689;SDS011;7945;48.816;11.506;2023-05-17T10:26:41;6.35;;;2.40;;
15689;SDS011;7945;48.816;11.506;2023-05-17T10:29:08;5.00;;;2.58;;
15689;SDS011;7945;48.816;11.506;2023-05-17T10:31:36;4.97;;;2.28;;
15689;SDS011;7945;48.816;11.506;2023-05-17T10:34:06;3.70;;;2.20;;
15689;SDS011;7945;48.816;11.506;2023-05-17T10:36:35;3.22;;;2.50;;
15689;SDS011;7945;48.816;11.506;2023-05-17T10:39:04;3.35;;;2.35;;
15689;SDS011;7945;48.816;11.506;2023-05-17T10:41:32;4.15;;;2.47;;
15689;SDS011;7945;48.816;11.506;2023-05-17T10:44:03;3.45;;;2.40;;
15689;SDS011;7945;48.816;11.506;2023-05-17T10:46:32;5.10;;;2.60;;
15689;SDS011;7945;48.816;11.506;2023-05-17T10:49:00;2.72;;;2.15;;
15689;SDS011;7945;48.816;11.506;2023-05-17T10:51:29;4.50;;;2.60;;
15689;SDS011;7945;48.816;11.506;2023-05-17T10:54:02;4.30;;;2.60;;
15689;SDS011;7945;48.816;11.506;2023-05-17T10:56:30;3.63;;;2.40;;
15689;SDS011;7945;48.816;11.506;2023-05-17T10:59:13;6.90;;;2.42;;
15689;SDS011;7945;48.816;11.506;2023-05-17T11:01:47;4.18;;;2.50;;
15689;SDS011;7945;48.816;11.506;2023-05-17T11:04:21;3.38;;;2.60;;
15689;SDS011;7945;48.816;11.506;2023-05-17T11:06:50;4.05;;;2.42;;
15689;SDS011;7945;48.816;11.506;2023-05-17T11:09:17;4.40;;;2.28;;
15689;SDS011;7945;48.816;11.506;2023-05-17T11:12:03;4.00;;;1.98;;
15689;SDS011;7945;48.816;11.506;2023-05-17T11:14:41;4.28;;;2.20;;
15689;SDS011;7945;48.816;11.506;2023-05-17T11:17:12;2.55;;;2.35;;
15689;SDS011;7945;48.816;11.506;2023-05-17T11:19:48;4.22;;;2.38;;
15689;SDS011;7945;48.816;11.506;2023-05-17T11:22:21;3.28;;;2.33;;
15689;SDS011;7945;48.816;11.506;2023-05-17T11:24:50;3.15;;;2.50;;
15689;SDS011;7945;48.816;11.506;2023-05-17T11:27:17;4.95;;;2.35;;
15689;SDS011;7945;48.816;11.506;2023-05-17T11:29:51;4.05;;;2.33;;
15689;SDS011;7945;48.816;11.506;2023-05-17T11:32:18;3.13;;;2.28;;
15689;SDS011;7945;48.816;11.506;2023-05-17T11:34:52;3.33;;;2.50;;
15689;SDS011;7945;48.816;11.506;2023-05-17T11:37:24;4.53;;;2.33;;
15689;SDS011;7945;48.816;11.506;2023-05-17T11:40:01;4.35;;;2.55;;
15689;SDS011;7945;48.816;11.506;2023-05-17T11:42:29;3.97;;;2.65;;
15689;SDS011;7945;48.816;11.506;2023-05-17T11:44:56;4.30;;;2.35;;
15689;SDS011;7945;48.816;11.506;2023-05-17T11:47:23;4.13;;;2.33;;
15689;SDS011;7945;48.816;11.506;2023-05-17T11:49:54;3.42;;;2.50;;
15689;SDS011;7945;48.816;11.506;2023-05-17T11:52:21;3.50;;;2.70;;
15689;SDS011;7945;48.816;11.506;2023-05-17T11:54:48;4.93;;;2.85;;
15689;SDS011;7945;48.816;11.506;2023-05-17T11:57:15;3.78;;;2.85;;
15689;SDS011;7945;48.816;11.506;2023-05-17T11:59:45;5.15;;;2.85;;
15689;SDS011;7945;48.816;11.506;2023-05-17T12:02:24;3.85;;;2.80;;
15689;SDS011;7945;48.816;11.506;2023-05-17T12:04:51;4.03;;;2.90;;
15689;SDS011;7945;48.816;11.506;2023-05-17T12:07:20;5.30;;;2.83;;
15689;SDS011;7945;48.816;11.506;2023-05-17T12:09:46;4.43;;;2.83;;
15689;SDS011;7945;48.816;11.506;2023-05-17T12:12:14;4.63;;;2.80;;
15689;SDS011;7945;48.816;11.506;2023-05-17T12:14:41;6.35;;;2.85;;
15689;SDS011;7945;48.816;11.506;2023-05-17T12:17:09;4.13;;;3.20;;
15689;SDS011;7945;48.816;11.506;2023-05-17T12:19:41;7.68;;;3.53;;
15689;SDS011;7945;48.816;11.506;2023-05-17T12:22:10;4.30;;;3.20;;
15689;SDS011;7945;48.816;11.506;2023-05-17T12:24:38;5.63;;;3.22;;
15689;SDS011;7945;48.816;11.506;2023-05-17T12:27:05;5.57;;;3.33;;
15689;SDS011;7945;48.816;11.506;2023-05-17T12:29:32;6.45;;;3.75;;
15689;SDS011;7945;48.816;11.506;2023-05-17T12:31:59;6.88;;;3.45;;
15689;SDS011;7945;48.816;11.506;2023-05-17T12:34:27;4.93;;;3.53;;
15689;SDS011;7945;48.816;11.506;2023-05-17T12:36:55;4.57;;;3.08;;
15689;SDS011;7945;48.816;11.506;2023-05-17T12:39:24;4.78;;;3.25;;
15689;SDS011;7945;48.816;11.506;2023-05-17T12:41:51;6.20;;;3.47;;
15689;SDS011;7945;48.816;11.506;2023-05-17T12:44:18;5.03;;;3.38;;
15689;SDS011;7945;48.816;11.506;2023-05-17T12:46:46;6.18;;;3.55;;
15689;SDS011;7945;48.816;11.506;2023-05-17T12:49:17;6.00;;;3.40;;
15689;SDS011;7945;48.816;11.506;2023-05-17T12:51:46;7.22;;;3.97;;
15689;SDS011;7945;48.816;11.506;2023-05-17T12:54:13;6.47;;;3.35;;
15689;SDS011;7945;48.816;11.506;2023-05-17T12:56:51;4.95;;;3.50;;
15689;SDS011;7945;48.816;11.506;2023-05-17T12:59:19;5.63;;;4.00;;
15689;SDS011;7945;48.816;11.506;2023-05-17T13:01:46;5.85;;;3.85;;
15689;SDS011;7945;48.816;11.506;2023-05-17T13:04:14;6.20;;;3.78;;
15689;SDS011;7945;48.816;11.506;2023-05-17T13:06:43;5.63;;;3.95;;
15689;SDS011;7945;48.816;11.506;2023-05-17T13:09:11;7.20;;;4.53;;
15689;SDS011;7945;48.816;11.506;2023-05-17T13:11:39;5.25;;;3.65;;
15689;SDS011;7945;48.816;11.506;2023-05-17T13:14:08;5.40;;;3.65;;
15689;SDS011;7945;48.816;11.506;2023-05-17T13:16:36;4.25;;;3.42;;
15689;SDS011;7945;48.816;11.506;2023-05-17T13:19:10;8.48;;;4.35;;
15689;SDS011;7945;48.816;11.506;2023-05-17T13:21:37;4.70;;;3.40;;
15689;SDS011;7945;48.816;11.506;2023-05-17T13:24:04;7.18;;;3.70;;
15689;SDS011;7945;48.816;11.506;2023-05-17T13:26:31;5.13;;;3.50;;
15689;SDS011;7945;48.816;11.506;2023-05-17T13:28:58;4.85;;;3.50;;
15689;SDS011;7945;48.816;11.506;2023-05-17T13:31:26;5.60;;;3.40;;
15689;SDS011;7945;48.816;11.506;2023-05-17T13:33:52;7.65;;;3.83;;
15689;SDS011;7945;48.816;11.506;2023-05-17T13:36:19;5.43;;;3.33;;
15689;SDS011;7945;48.816;11.506;2023-05-17T13:38:46;6.78;;;3.95;;
15689;SDS011;7945;48.816;11.506;2023-05-17T13:41:12;5.75;;;3.17;;
15689;SDS011;7945;48.816;11.506;2023-05-17T13:43:39;6.10;;;3.33;;
15689;SDS011;7945;48.816;11.506;2023-05-17T13:46:06;5.63;;;3.40;;
15689;SDS011;7945;48.816;11.506;2023-05-17T13:48:34;5.05;;;3.45;;
15689;SDS011;7945;48.816;11.506;2023-05-17T13:51:01;6.70;;;3.78;;
15689;SDS011;7945;48.816;11.506;2023-05-17T13:53:27;7.40;;;3.75;;
15689;SDS011;7945;48.816;11.506;2023-05-17T13:55:54;7.10;;;3.33;;
15689;SDS011;7945;48.816;11.506;2023-05-17T13:58:21;4.13;;;3.35;;
15689;SDS011;7945;48.816;11.506;2023-05-17T14:00:48;7.05;;;3.67;;
15689;SDS011;7945;48.816;11.506;2023-05-17T14:03:15;5.03;;;3.28;;
15689;SDS011;7945;48.816;11.506;2023-05-17T14:05:43;5.50;;;3.20;;
15689;SDS011;7945;48.816;11.506;2023-05-17T14:08:13;4.72;;;2.95;;
15689;SDS011;7945;48.816;11.506;2023-05-17T14:10:40;4.25;;;2.70;;
15689;SDS011;7945;48.816;11.506;2023-05-17T14:13:07;4.15;;;3.03;;
15689;SDS011;7945;48.816;11.506;2023-05-17T14:15:35;6.28;;;3.10;;
15689;SDS011;7945;48.816;11.506;2023-05-17T14:18:03;4.68;;;3.00;;
15689;SDS011;7945;48.816;11.506;2023-05-17T14:20:31;4.15;;;2.95;;
15689;SDS011;7945;48.816;11.506;2023-05-17T14:22:59;7.05;;;3.22;;
15689;SDS011;7945;48.816;11.506;2023-05-17T14:25:26;7.43;;;3.30;;
15689;SDS011;7945;48.816;11.506;2023-05-17T14:27:53;4.03;;;2.85;;
15689;SDS011;7945;48.816;11.506;2023-05-17T14:30:20;3.72;;;2.67;;
15689;SDS011;7945;48.816;11.506;2023-05-17T14:32:47;6.00;;;3.30;;
15689;SDS011;7945;48.816;11.506;2023-05-17T14:35:13;4.78;;;3.10;;
15689;SDS011;7945;48.816;11.506;2023-05-17T14:37:41;7.53;;;3.97;;
15689;SDS011;7945;48.816;11.506;2023-05-17T14:40:10;5.18;;;3.53;;
15689;SDS011;7945;48.816;11.506;2023-05-17T14:42:37;4.65;;;3.10;;
15689;SDS011;7945;48.816;11.506;2023-05-17T14:45:04;4.30;;;2.97;;
15689;SDS011;7945;48.816;11.506;2023-05-17T14:47:32;6.45;;;3.00;;
15689;SDS011;7945;48.816;11.506;2023-05-17T14:49:59;5.65;;;3.35;;
15689;SDS011;7945;48.816;11.506;2023-05-17T14:52:25;4.95;;;2.83;;
15689;SDS011;7945;48.816;11.506;2023-05-17T14:54:52;5.35;;;3.08;;
15689;SDS011;7945;48.816;11.506;2023-05-17T14:57:20;4.82;;;3.03;;